createdAt,value
2017-08-02T00:01:10.227Z,0.60
2017-08-02T00:03:37.787Z,0.60
2017-08-02T00:06:05.387Z,0.70
2017-08-02T00:08:32.998Z,0.60
2017-08-02T00:11:00.877Z,0.60
2017-08-02T00:13:28.437Z,0.60
2017-08-02T00:15:55.984Z,0.60
2017-08-02T00:18:23.581Z,0.60
2017-08-02T00:20:51.123Z,0.60
2017-08-02T00:23:19.176Z,0.60
2017-08-02T00:25:46.722Z,0.60
2017-08-02T00:28:14.284Z,0.60
2017-08-02T00:30:41.876Z,0.60
2017-08-02T00:33:09.476Z,0.60
2017-08-02T00:35:37.374Z,0.60
2017-08-02T00:38:04.951Z,0.60
2017-08-02T00:40:32.504Z,0.60
2017-08-02T00:43:00.096Z,0.60
2017-08-02T00:45:28.421Z,0.60
2017-08-02T00:47:56.403Z,0.60
2017-08-02T00:50:23.980Z,0.60
2017-08-02T00:52:51.542Z,0.60
2017-08-02T00:55:19.159Z,0.60
2017-08-02T00:57:46.836Z,0.60
2017-08-02T01:00:14.800Z,0.60
2017-08-02T01:02:42.654Z,0.60
2017-08-02T01:05:10.426Z,0.60
2017-08-02T01:07:38.125Z,0.60
2017-08-02T01:10:05.685Z,0.60
2017-08-02T01:12:33.603Z,0.60
2017-08-02T01:15:01.162Z,0.60
2017-08-02T01:17:28.782Z,0.60
2017-08-02T01:19:57.148Z,0.60
2017-08-02T01:22:24.720Z,0.60
2017-08-02T01:24:53.384Z,0.60
2017-08-02T01:27:20.940Z,0.60
2017-08-02T01:29:48.499Z,0.60
2017-08-02T01:32:16.075Z,0.60
2017-08-02T01:34:43.624Z,0.60
2017-08-02T01:37:11.573Z,0.60
2017-08-02T01:39:39.148Z,0.60
2017-08-02T01:42:06.712Z,0.60
2017-08-02T01:44:34.313Z,0.60
2017-08-02T01:47:01.867Z,0.60
2017-08-02T01:49:29.745Z,0.60
2017-08-02T01:51:57.301Z,0.60
2017-08-02T01:54:24.870Z,0.60
2017-08-02T01:56:52.476Z,0.60
2017-08-02T01:59:20.013Z,0.60
2017-08-02T02:01:47.922Z,0.60
2017-08-02T02:04:16.262Z,0.60
2017-08-02T02:06:43.816Z,0.60
2017-08-02T02:09:11.409Z,0.60
2017-08-02T02:11:39.132Z,0.60
2017-08-02T02:14:07.032Z,0.60
2017-08-02T02:16:34.609Z,0.60
2017-08-02T02:19:02.168Z,1.93
2017-08-02T02:21:29.767Z,0.60
2017-08-02T02:23:57.353Z,0.60
2017-08-02T02:26:25.248Z,0.60
2017-08-02T02:28:52.809Z,0.60
2017-08-02T02:31:20.362Z,0.60
2017-08-02T02:33:47.968Z,0.60
2017-08-02T02:36:15.527Z,0.60
2017-08-02T02:38:43.452Z,0.60
2017-08-02T02:41:11.038Z,0.60
2017-08-02T02:43:38.587Z,0.60
2017-08-02T02:46:06.952Z,0.60
2017-08-02T02:48:34.514Z,0.60
2017-08-02T02:51:02.568Z,0.60
2017-08-02T02:53:30.134Z,0.60
2017-08-02T02:55:57.704Z,0.60
2017-08-02T02:58:25.304Z,0.60
2017-08-02T03:00:52.876Z,0.60
2017-08-02T03:03:20.898Z,0.60
2017-08-02T03:05:48.501Z,0.60
2017-08-02T03:08:16.082Z,0.60
2017-08-02T03:10:43.677Z,0.60
2017-08-02T03:13:11.242Z,0.60
2017-08-02T03:15:39.111Z,0.60
2017-08-02T03:18:06.683Z,0.60
2017-08-02T03:20:35.008Z,0.60
2017-08-02T03:23:02.582Z,0.60
2017-08-02T03:25:30.139Z,0.60
2017-08-02T03:27:58.149Z,0.60
2017-08-02T03:30:26.494Z,0.60
2017-08-02T03:32:54.069Z,0.60
2017-08-02T03:35:21.714Z,0.60
2017-08-02T03:37:49.300Z,0.60
2017-08-02T03:40:17.208Z,0.60
2017-08-02T03:42:44.765Z,0.60
2017-08-02T03:45:12.356Z,0.60
2017-08-02T03:47:39.953Z,0.60
2017-08-02T03:50:07.522Z,0.60
2017-08-02T03:52:36.154Z,0.60
2017-08-02T03:55:03.725Z,0.60
2017-08-02T03:57:31.271Z,0.60
2017-08-02T03:59:59.687Z,0.60
2017-08-02T04:02:27.264Z,0.60
2017-08-02T04:04:56.133Z,0.60
2017-08-02T04:07:23.715Z,0.60
2017-08-02T04:09:51.271Z,0.60
2017-08-02T04:12:19.713Z,0.60
2017-08-02T04:14:47.268Z,0.90
2017-08-02T04:17:15.234Z,0.60
2017-08-02T04:19:42.803Z,0.60
2017-08-02T04:22:10.351Z,0.60
2017-08-02T04:24:37.972Z,0.60
2017-08-02T04:27:05.558Z,0.60
2017-08-02T04:29:33.570Z,0.60
2017-08-02T04:32:01.123Z,0.60
2017-08-02T04:34:28.651Z,0.60
2017-08-02T04:36:56.280Z,0.60
2017-08-02T04:39:23.835Z,0.60
2017-08-02T04:41:51.856Z,0.60
2017-08-02T04:44:19.413Z,0.60
2017-08-02T04:46:46.972Z,0.60
2017-08-02T04:49:14.573Z,0.60
2017-08-02T04:51:42.131Z,0.60
2017-08-02T04:54:10.519Z,0.60
2017-08-02T04:56:38.083Z,0.60
2017-08-02T04:59:06.128Z,0.60
2017-08-02T05:01:34.451Z,0.60
2017-08-02T05:04:02.019Z,0.60
2017-08-02T05:06:29.624Z,0.60
2017-08-02T05:08:57.170Z,0.60
2017-08-02T05:11:25.044Z,0.60
2017-08-02T05:13:52.613Z,0.60
2017-08-02T05:16:20.171Z,0.60
2017-08-02T05:18:48.515Z,0.60
2017-08-02T05:21:16.078Z,0.60
2017-08-02T05:23:43.965Z,0.60
2017-08-02T05:26:11.511Z,0.60
2017-08-02T05:28:39.128Z,0.60
2017-08-02T05:31:06.718Z,0.60
2017-08-02T05:33:34.287Z,0.60
2017-08-02T05:36:02.274Z,0.60
2017-08-02T05:38:29.839Z,0.60
2017-08-02T05:40:57.403Z,0.60
2017-08-02T05:43:24.996Z,0.60
2017-08-02T05:45:52.560Z,0.60
2017-08-02T05:48:20.161Z,0.60
2017-08-02T05:50:47.795Z,0.60
2017-08-02T05:53:15.704Z,0.60
2017-08-02T05:55:43.275Z,0.60
2017-08-02T05:58:10.843Z,0.60
2017-08-02T06:00:39.204Z,0.60
2017-08-02T06:03:06.759Z,0.60
2017-08-02T06:05:34.839Z,0.60
2017-08-02T06:08:03.198Z,0.60
2017-08-02T06:10:30.773Z,0.60
2017-08-02T06:12:58.453Z,0.60
2017-08-02T06:15:26.888Z,0.60
2017-08-02T06:17:54.785Z,0.60
2017-08-02T06:20:22.361Z,0.60
2017-08-02T06:22:49.917Z,0.60
2017-08-02T06:25:18.280Z,0.60
2017-08-02T06:27:45.853Z,0.60
2017-08-02T06:30:14.519Z,0.60
2017-08-02T06:32:42.077Z,0.60
2017-08-02T06:35:09.638Z,0.60
2017-08-02T06:37:37.212Z,0.60
2017-08-02T06:40:04.772Z,0.60
2017-08-02T06:42:32.836Z,0.60
2017-08-02T06:45:00.391Z,0.60
2017-08-02T06:47:27.963Z,0.60
2017-08-02T06:49:56.363Z,0.60
2017-08-02T06:52:23.937Z,0.70
2017-08-02T06:54:51.964Z,0.60
2017-08-02T06:57:19.530Z,0.60
2017-08-02T06:59:47.089Z,0.60
2017-08-02T07:02:14.680Z,0.60
2017-08-02T07:04:42.390Z,0.60
2017-08-02T07:07:10.279Z,0.60
2017-08-02T07:09:37.843Z,0.60
2017-08-02T07:12:05.396Z,0.60
2017-08-02T07:14:32.997Z,0.60
2017-08-02T07:17:00.570Z,0.60
2017-08-02T07:19:28.589Z,0.60
2017-08-02T07:21:56.933Z,0.60
2017-08-02T07:24:24.503Z,0.60
2017-08-02T07:26:52.128Z,0.60
2017-08-02T07:29:19.701Z,0.70
2017-08-02T07:31:47.721Z,0.60
2017-08-02T07:34:15.285Z,0.60
2017-08-02T07:36:42.837Z,0.60
2017-08-02T07:39:10.447Z,0.60
2017-08-02T07:41:38.008Z,0.80
2017-08-02T07:44:05.886Z,0.60
2017-08-02T07:46:33.449Z,0.60
2017-08-02T07:49:01.027Z,0.60
2017-08-02T07:51:28.682Z,0.60
2017-08-02T07:53:56.253Z,0.60
2017-08-02T07:56:24.126Z,0.60
2017-08-02T07:58:51.766Z,0.60
2017-08-02T08:01:19.337Z,0.60
2017-08-02T08:03:46.968Z,0.60
2017-08-02T08:06:14.550Z,1.67
2017-08-02T08:08:42.640Z,0.60
2017-08-02T08:11:10.205Z,0.60
2017-08-02T08:13:37.828Z,0.60
2017-08-02T08:16:05.471Z,0.60
2017-08-02T08:18:33.035Z,0.60
2017-08-02T08:21:00.953Z,0.60
2017-08-02T08:23:28.529Z,0.60
2017-08-02T08:25:56.124Z,0.60
2017-08-02T08:28:23.721Z,0.60
2017-08-02T08:30:51.300Z,0.60
2017-08-02T08:33:19.216Z,0.60
2017-08-02T08:35:46.772Z,0.60
2017-08-02T08:38:14.354Z,0.60
2017-08-02T08:40:42.024Z,0.60
2017-08-02T08:43:09.585Z,0.60
2017-08-02T08:45:37.555Z,0.60
2017-08-02T08:48:05.186Z,0.60
2017-08-02T08:50:32.756Z,0.60
2017-08-02T08:53:00.371Z,0.60
2017-08-02T08:55:28.699Z,0.60
2017-08-02T08:57:56.565Z,0.60
2017-08-02T09:00:24.127Z,0.60
2017-08-02T09:02:51.700Z,0.60
2017-08-02T09:05:19.286Z,7.73
2017-08-02T09:07:47.625Z,6.13
2017-08-02T09:10:15.643Z,10.70
2017-08-02T09:12:43.960Z,8.43
2017-08-02T09:15:11.723Z,5.87
2017-08-02T09:17:39.499Z,7.57
2017-08-02T09:20:07.053Z,6.83
2017-08-02T09:22:34.967Z,7.30
2017-08-02T09:25:03.307Z,8.83
2017-08-02T09:27:30.901Z,11.50
2017-08-02T09:29:59.279Z,8.00
2017-08-02T09:32:26.831Z,9.73
2017-08-02T09:34:54.881Z,6.67
2017-08-02T09:37:22.610Z,11.27
2017-08-02T09:39:50.179Z,10.50
2017-08-02T09:42:17.798Z,6.57
2017-08-02T09:44:45.373Z,8.73
2017-08-02T09:47:14.204Z,11.07
2017-08-02T09:49:41.766Z,6.13
2017-08-02T09:52:09.331Z,10.40
2017-08-02T09:54:37.104Z,8.33
2017-08-02T09:57:04.713Z,11.20
2017-08-02T09:59:32.757Z,10.13
2017-08-02T10:02:00.321Z,6.57
2017-08-02T10:04:27.901Z,9.47
2017-08-02T10:06:55.509Z,9.53
2017-08-02T10:09:23.108Z,6.77
2017-08-02T10:11:51.075Z,9.77
2017-08-02T10:14:19.420Z,8.53
2017-08-02T10:16:46.973Z,7.67
2017-08-02T10:19:14.661Z,5.50
2017-08-02T10:21:42.253Z,9.10
2017-08-02T10:24:10.178Z,10.40
2017-08-02T10:26:37.729Z,7.90
2017-08-02T10:29:06.195Z,7.40
2017-08-02T10:31:33.843Z,8.53
2017-08-02T10:34:02.332Z,7.83
2017-08-02T10:36:30.332Z,9.50
2017-08-02T10:38:57.976Z,10.30
2017-08-02T10:41:25.719Z,8.93
2017-08-02T10:43:53.332Z,12.57
2017-08-02T10:46:20.894Z,9.07
2017-08-02T10:48:48.835Z,12.23
2017-08-02T10:51:16.413Z,8.50
2017-08-02T10:53:44.007Z,8.57
2017-08-02T10:56:11.610Z,13.30
2017-08-02T10:58:39.169Z,10.37
2017-08-02T11:01:07.064Z,12.67
2017-08-02T11:03:34.637Z,9.77
2017-08-02T11:06:02.975Z,14.13
2017-08-02T11:08:30.574Z,11.50
2017-08-02T11:10:58.323Z,9.00
2017-08-02T11:13:26.197Z,6.60
2017-08-02T11:15:53.743Z,13.00
2017-08-02T11:18:21.298Z,9.60
2017-08-02T11:20:49.253Z,8.43
2017-08-02T11:23:16.836Z,16.60
2017-08-02T11:25:44.786Z,7.80
2017-08-02T11:28:12.360Z,7.07
2017-08-02T11:30:39.916Z,4.93
2017-08-02T11:33:07.496Z,10.30
2017-08-02T11:35:35.055Z,8.00
2017-08-02T11:38:03.732Z,7.37
2017-08-02T11:40:31.290Z,5.83
2017-08-02T11:42:58.858Z,7.80
2017-08-02T11:45:27.243Z,7.83
2017-08-02T11:47:54.805Z,5.90
2017-08-02T11:50:23.490Z,10.30
2017-08-02T11:52:51.832Z,8.13
2017-08-02T11:55:19.400Z,9.10
2017-08-02T11:57:46.996Z,8.40
2017-08-02T12:00:14.556Z,12.40
2017-08-02T12:02:43.437Z,8.37
2017-08-02T12:05:11.777Z,12.17
2017-08-02T12:07:39.384Z,8.93
2017-08-02T12:10:07.754Z,11.83
2017-08-02T12:12:35.309Z,6.87
2017-08-02T12:15:04.145Z,13.50
2017-08-02T12:17:31.704Z,17.20
2017-08-02T12:19:59.299Z,11.70
2017-08-02T12:22:26.917Z,13.13
2017-08-02T12:24:54.485Z,9.23
2017-08-02T12:27:22.340Z,7.77
2017-08-02T12:29:49.925Z,10.30
2017-08-02T12:32:17.486Z,13.30
2017-08-02T12:34:45.099Z,9.73
2017-08-02T12:37:13.452Z,10.40
2017-08-02T12:39:41.430Z,8.80
2017-08-02T12:42:10.728Z,9.73
2017-08-02T12:44:38.289Z,10.03
2017-08-02T12:47:06.170Z,11.07
2017-08-02T12:49:33.730Z,8.97
2017-08-02T12:52:02.363Z,7.93
2017-08-02T12:54:29.929Z,13.50
2017-08-02T12:56:57.677Z,9.83
2017-08-02T12:59:25.290Z,8.50
2017-08-02T13:01:52.858Z,8.37
2017-08-02T13:04:21.730Z,11.90
2017-08-02T13:06:49.281Z,10.07
2017-08-02T13:09:16.856Z,9.00
2017-08-02T13:11:44.438Z,7.37
2017-08-02T13:14:12.007Z,9.70
2017-08-02T13:16:39.890Z,15.23
2017-08-02T13:19:07.500Z,8.83
2017-08-02T13:21:35.842Z,11.60
2017-08-02T13:24:03.457Z,8.87
2017-08-02T13:26:31.791Z,6.40
2017-08-02T13:28:59.423Z,9.67
2017-08-02T13:31:26.989Z,6.13
2017-08-02T13:33:54.670Z,7.00
2017-08-02T13:36:22.297Z,9.57
2017-08-02T13:38:50.234Z,12.80
2017-08-02T13:41:18.576Z,9.33
2017-08-02T13:43:46.156Z,17.90
2017-08-02T13:46:13.761Z,6.30
2017-08-02T13:48:41.322Z,7.03
2017-08-02T13:51:09.388Z,8.37
2017-08-02T13:53:37.014Z,11.00
2017-08-02T13:56:04.583Z,19.77
2017-08-02T13:58:33.044Z,8.77
2017-08-02T14:01:00.619Z,8.50
2017-08-02T14:03:28.663Z,5.53
2017-08-02T14:05:56.220Z,5.50
2017-08-02T14:08:23.797Z,8.03
2017-08-02T14:10:51.721Z,11.23
2017-08-02T14:13:19.375Z,7.87
2017-08-02T14:15:47.416Z,6.63
2017-08-02T14:18:15.366Z,11.77
2017-08-02T14:20:42.941Z,5.80
2017-08-02T14:23:11.381Z,7.80
2017-08-02T14:25:39.099Z,12.63
2017-08-02T14:28:07.797Z,6.93
2017-08-02T14:30:35.352Z,6.53
2017-08-02T14:33:02.934Z,10.10
2017-08-02T14:35:30.521Z,7.20
2017-08-02T14:37:58.113Z,5.80
2017-08-02T14:40:26.099Z,7.27
2017-08-02T14:42:53.669Z,9.57
2017-08-02T14:45:21.249Z,17.73
2017-08-02T14:47:48.860Z,16.13
2017-08-02T14:50:17.206Z,7.40
2017-08-02T14:52:45.213Z,6.50
2017-08-02T14:55:13.558Z,11.63
2017-08-02T14:57:41.156Z,7.53
2017-08-02T15:00:09.512Z,5.63
2017-08-02T15:02:37.086Z,6.03
2017-08-02T15:05:05.772Z,6.90
2017-08-02T15:07:34.114Z,10.30
2017-08-02T15:10:01.673Z,6.13
2017-08-02T15:12:29.328Z,11.10
2017-08-02T15:14:56.939Z,14.40
2017-08-02T15:17:24.914Z,12.73
2017-08-02T15:19:53.248Z,11.60
2017-08-02T15:22:20.846Z,7.73
2017-08-02T15:24:49.232Z,11.30
2017-08-02T15:27:16.790Z,6.30
2017-08-02T15:29:45.523Z,8.13
2017-08-02T15:32:13.106Z,9.90
2017-08-02T15:34:40.674Z,13.63
2017-08-02T15:37:08.283Z,9.00
2017-08-02T15:39:35.853Z,9.70
2017-08-02T15:42:03.753Z,8.00
2017-08-02T15:44:31.392Z,5.97
2017-08-02T15:46:58.939Z,6.30
2017-08-02T15:49:26.555Z,7.80
2017-08-02T15:51:54.900Z,4.40
2017-08-02T15:54:22.889Z,8.10
2017-08-02T15:56:50.481Z,7.43
2017-08-02T15:59:18.041Z,20.77
2017-08-02T16:01:45.665Z,28.53
2017-08-02T16:04:13.236Z,16.27
2017-08-02T16:06:41.226Z,17.07
2017-08-02T16:09:08.911Z,17.17
2017-08-02T16:11:36.451Z,12.83
2017-08-02T16:14:04.059Z,9.40
2017-08-02T16:16:31.632Z,8.27
2017-08-02T16:18:59.722Z,9.10
2017-08-02T16:21:27.291Z,6.20
2017-08-02T16:23:54.997Z,9.00
2017-08-02T16:26:22.623Z,12.07
2017-08-02T16:28:50.197Z,6.50
2017-08-02T16:31:17.788Z,6.00
2017-08-02T16:33:45.353Z,10.10
2017-08-02T16:36:13.347Z,9.50
2017-08-02T16:38:40.933Z,7.30
2017-08-02T16:41:08.495Z,6.97
2017-08-02T16:43:36.874Z,12.20
2017-08-02T16:46:04.456Z,6.37
2017-08-02T16:48:32.314Z,9.33
2017-08-02T16:51:00.043Z,8.07
2017-08-02T16:53:27.622Z,7.17
2017-08-02T16:55:56.017Z,10.50
2017-08-02T16:58:23.588Z,9.27
2017-08-02T17:00:51.454Z,8.77
2017-08-02T17:03:19.072Z,8.40
2017-08-02T17:05:47.408Z,8.37
2017-08-02T17:08:15.030Z,10.43
2017-08-02T17:10:43.373Z,6.13
2017-08-02T17:13:11.353Z,7.47
2017-08-02T17:15:38.918Z,7.80
2017-08-02T17:18:06.480Z,7.87
2017-08-02T17:20:34.113Z,10.57
2017-08-02T17:23:01.669Z,8.37
2017-08-02T17:25:29.647Z,9.80
2017-08-02T17:27:57.204Z,6.27
2017-08-02T17:30:24.778Z,7.70
2017-08-02T17:32:52.411Z,9.40
2017-08-02T17:35:20.000Z,13.43
2017-08-02T17:37:47.980Z,15.20
2017-08-02T17:40:16.309Z,8.73
2017-08-02T17:42:43.888Z,8.73
2017-08-02T17:45:11.477Z,8.50
2017-08-02T17:47:39.057Z,9.60
2017-08-02T17:50:07.029Z,6.40
2017-08-02T17:52:34.605Z,6.97
2017-08-02T17:55:02.199Z,11.83
2017-08-02T17:57:29.827Z,13.33
2017-08-02T17:59:57.386Z,10.20
2017-08-02T18:02:25.419Z,9.20
2017-08-02T18:04:53.770Z,7.87
2017-08-02T18:07:21.325Z,9.40
2017-08-02T18:09:48.906Z,10.77
2017-08-02T18:12:16.471Z,10.20
2017-08-02T18:14:45.191Z,10.67
2017-08-02T18:17:12.770Z,10.27
2017-08-02T18:19:40.347Z,8.43
2017-08-02T18:22:08.192Z,8.50
2017-08-02T18:24:35.755Z,7.63
2017-08-02T18:27:03.665Z,27.27
2017-08-02T18:29:31.254Z,159.00
2017-08-02T18:31:58.845Z,15.87
2017-08-02T18:34:26.469Z,15.10
2017-08-02T18:36:54.807Z,24.40
2017-08-02T18:39:22.811Z,18.07
2017-08-02T18:41:51.194Z,15.33
2017-08-02T18:44:18.787Z,29.40
2017-08-02T18:46:46.435Z,19.70
2017-08-02T18:49:14.012Z,30.87
2017-08-02T18:51:41.926Z,19.00
2017-08-02T18:54:10.266Z,15.47
2017-08-02T18:56:37.841Z,26.13
2017-08-02T18:59:05.463Z,29.37
2017-08-02T19:01:33.043Z,25.37
2017-08-02T19:04:01.215Z,18.00
2017-08-02T19:06:29.019Z,23.70
2017-08-02T19:08:56.656Z,18.93
2017-08-02T19:11:24.265Z,22.60
2017-08-02T19:13:52.631Z,20.23
2017-08-02T19:16:20.593Z,21.93
2017-08-02T19:18:48.210Z,21.07
2017-08-02T19:21:15.818Z,16.37
2017-08-02T19:23:43.448Z,20.17
2017-08-02T19:26:11.023Z,29.27
2017-08-02T19:28:38.910Z,17.10
2017-08-02T19:31:07.272Z,25.90
2017-08-02T19:33:34.863Z,27.23
2017-08-02T19:36:02.483Z,33.10
2017-08-02T19:38:30.098Z,19.10
2017-08-02T19:40:58.285Z,19.67
2017-08-02T19:43:25.912Z,23.80
2017-08-02T19:45:54.313Z,24.30
2017-08-02T19:48:21.981Z,23.43
2017-08-02T19:50:49.578Z,24.40
2017-08-02T19:53:17.192Z,21.90
2017-08-02T19:55:44.768Z,27.43
2017-08-02T19:58:12.900Z,36.17
2017-08-02T20:00:41.243Z,22.40
2017-08-02T20:03:08.825Z,28.47
2017-08-02T20:05:36.459Z,37.60
2017-08-02T20:08:04.036Z,20.80
2017-08-02T20:10:32.029Z,21.20
2017-08-02T20:13:00.395Z,19.13
2017-08-02T20:15:27.952Z,21.50
2017-08-02T20:17:55.558Z,19.60
2017-08-02T20:20:23.162Z,27.63
2017-08-02T20:22:51.138Z,28.27
2017-08-02T20:25:18.729Z,25.27
2017-08-02T20:27:46.305Z,24.10
2017-08-02T20:30:13.975Z,27.83
2017-08-02T20:32:41.562Z,24.00
2017-08-02T20:35:09.473Z,24.20
2017-08-02T20:37:37.823Z,20.57
2017-08-02T20:40:05.399Z,22.07
2017-08-02T20:42:33.817Z,21.80
2017-08-02T20:45:01.413Z,18.90
2017-08-02T20:47:29.424Z,20.80
2017-08-02T20:49:57.770Z,18.03
2017-08-02T20:52:25.364Z,18.60
2017-08-02T20:54:53.760Z,18.87
2017-08-02T20:57:21.337Z,23.57
2017-08-02T20:59:49.380Z,24.50
2017-08-02T21:02:16.952Z,22.53
2017-08-02T21:04:44.536Z,18.03
2017-08-02T21:07:12.181Z,27.13
2017-08-02T21:09:39.761Z,30.13
2017-08-02T21:12:07.708Z,25.53
2017-08-02T21:14:35.303Z,19.57
2017-08-02T21:17:02.868Z,28.67
2017-08-02T21:19:30.469Z,29.37
2017-08-02T21:21:58.064Z,20.53
2017-08-02T21:24:25.987Z,25.87
2017-08-02T21:26:54.340Z,23.07
2017-08-02T21:29:22.135Z,27.07
2017-08-02T21:31:50.519Z,16.33
2017-08-02T21:34:18.676Z,17.97
2017-08-02T21:36:47.373Z,24.83
2017-08-02T21:39:15.839Z,25.70
2017-08-02T21:41:44.256Z,23.20
2017-08-02T21:44:11.870Z,22.53
2017-08-02T21:46:39.457Z,23.17
2017-08-02T21:49:07.350Z,19.97
2017-08-02T21:51:34.932Z,19.70
2017-08-02T21:54:02.544Z,27.83
2017-08-02T21:56:30.168Z,21.03
2017-08-02T21:58:57.733Z,27.70
2017-08-02T22:01:32.550Z,25.30
2017-08-02T22:04:00.133Z,23.53
2017-08-02T22:06:27.731Z,25.90
2017-08-02T22:08:56.049Z,31.80
2017-08-02T22:11:23.621Z,28.20
2017-08-02T22:13:51.698Z,25.70
2017-08-02T22:16:19.271Z,27.70
2017-08-02T22:18:46.846Z,24.00
2017-08-02T22:21:15.230Z,34.67
2017-08-02T22:23:42.809Z,28.50
2017-08-02T22:26:10.895Z,25.80
2017-08-02T22:28:38.450Z,24.63
2017-08-02T22:31:06.026Z,23.17
2017-08-02T22:33:33.685Z,25.83
2017-08-02T22:36:01.419Z,26.33
2017-08-02T22:38:29.434Z,26.00
2017-08-02T22:40:57.010Z,23.80
2017-08-02T22:43:24.600Z,21.63
2017-08-02T22:45:52.923Z,25.40
2017-08-02T22:48:20.600Z,31.57
2017-08-02T22:50:48.589Z,18.50
2017-08-02T22:53:16.162Z,22.70
2017-08-02T22:55:43.891Z,26.62
2017-08-02T22:58:11.672Z,23.50
2017-08-02T23:00:46.600Z,21.67
2017-08-02T23:03:14.513Z,19.47
2017-08-02T23:05:42.085Z,25.93
2017-08-02T23:08:09.651Z,28.40
2017-08-02T23:10:37.275Z,26.30
2017-08-02T23:13:04.954Z,21.53
2017-08-02T23:15:32.559Z,21.10
2017-08-02T23:18:00.123Z,24.30
2017-08-02T23:20:28.060Z,25.37
2017-08-02T23:22:55.624Z,29.63
2017-08-02T23:25:23.209Z,22.37
2017-08-02T23:27:50.817Z,22.40
2017-08-02T23:30:19.139Z,26.83
2017-08-02T23:32:47.353Z,24.27
2017-08-02T23:35:14.913Z,28.30
2017-08-02T23:37:42.472Z,27.83
2017-08-02T23:40:10.168Z,21.00
2017-08-02T23:42:37.743Z,27.50
2017-08-02T23:45:05.644Z,32.73
2017-08-02T23:47:33.213Z,22.80
2017-08-02T23:50:00.787Z,26.80
2017-08-02T23:52:29.167Z,22.50
2017-08-02T23:54:56.743Z,23.07
2017-08-02T23:57:24.798Z,24.97
2017-08-02T23:59:53.121Z,19.93
